Russell Island, Michigan
Current Conditions -  °F | °C
As of 2:58 AM on Thursday 29 Jan 2015 (Local Time) from KMTC Reporting Station
Overcast Overcast  
Wind Chill: 15°   Ceiling: 7500
Heat Index: 26°   Visibility: 10mi
Dew Point: 18°   Wind: 12mph
Humidity: 73%   Direction: 140°SE
Pressure: 30.03"   Gusts: NA
Location:  42.6418°N, 82.5677°W
Report Text: KMTC 290758Z AUTO 14010KT 10SM OVC075 M03/M08 A3003 RMK AO2 SLP181 T10351078 $
Loading
Personal Weather Stations






























Interactive Weather Map New forecast layout! Learn more

10-Day Weather Forecast

Advertisements
Track Severe Weather on mobile